Time;durP1;ratioP1;P1;durP2;ratioP2;P2;SDS_P1;SDS_P2;PMS_P1;PMS_P2;Temp;Humidity;BMP_temperature;BMP_pressure;BME280_temperature;BME280_humidity;BME280_pressure;Samples;Min_cycle;Max_cycle;Signal;HPM_P1;HPM_P2
2021/05/22 00:00:13;;;;;;;6.55;1.90;;;10.50;99.90;;;;;;4919737;29;20044;-84
2021/05/22 00:02:40;;;;;;;4.07;2.10;;;10.60;99.90;;;;;;4917341;29;20059;-83
2021/05/22 00:05:10;;;;;;;6.45;1.92;;;10.60;99.90;;;;;;4915934;29;20056;-83
2021/05/22 00:07:39;;;;;;;7.13;2.20;;;10.50;99.90;;;;;;4914915;29;20052;-83
2021/05/22 00:10:10;;;;;;;6.93;2.10;;;10.50;99.90;;;;;;4901150;29;20067;-83
2021/05/22 00:12:44;;;;;;;5.27;2.90;;;10.50;99.90;;;;;;4905121;29;20052;-83
2021/05/22 00:15:18;;;;;;;3.53;1.83;;;10.40;99.90;;;;;;4903622;29;20306;-82
2021/05/22 00:17:45;;;;;;;5.65;2.85;;;10.40;99.90;;;;;;4921746;29;20048;-83
2021/05/22 00:20:15;;;;;;;2.72;1.80;;;10.40;99.90;;;;;;4917861;29;20136;-83
2021/05/22 00:22:46;;;;;;;4.95;2.22;;;10.40;99.90;;;;;;4923625;29;20412;-83
2021/05/22 00:25:15;;;;;;;2.45;1.90;;;10.40;99.90;;;;;;4922357;29;20063;-82
2021/05/22 00:27:44;;;;;;;3.90;1.60;;;10.30;99.90;;;;;;4906096;29;20048;-83
2021/05/22 00:30:15;;;;;;;8.40;1.63;;;11.20;99.90;;;;;;4893569;29;20085;-82
2021/05/22 00:32:44;;;;;;;2.63;1.55;;;10.20;99.90;;;;;;4921478;29;20052;-82
2021/05/22 00:35:13;;;;;;;3.80;1.67;;;9.80;99.90;;;;;;4920848;29;20508;-83
2021/05/22 00:37:41;;;;;;;4.07;3.38;;;10.30;99.90;;;;;;4916171;29;20440;-83
2021/05/22 00:40:10;;;;;;;4.45;2.10;;;10.20;99.90;;;;;;4899081;29;20056;-82
2021/05/22 00:42:40;;;;;;;3.07;2.20;;;10.20;99.90;;;;;;4921005;29;20060;-83
2021/05/22 00:45:10;;;;;;;4.35;2.10;;;10.20;99.90;;;;;;4919286;29;20306;-83
2021/05/22 00:47:45;;;;;;;6.78;1.98;;;10.20;99.90;;;;;;4917573;29;20499;-82
2021/05/22 00:50:22;;;;;;;3.92;3.45;;;10.20;99.90;;;;;;4921961;29;20067;-82
2021/05/22 00:52:52;;;;;;;6.35;2.28;;;10.20;99.90;;;;;;4904074;29;20056;-81
2021/05/22 00:55:23;;;;;;;5.22;2.10;;;10.10;99.90;;;;;;4906185;29;20052;-82
2021/05/22 00:57:54;;;;;;;3.30;2.78;;;10.10;99.90;;;;;;4922030;29;20052;-82
2021/05/22 01:00:39;;;;;;;8.95;3.10;;;10.10;99.90;;;;;;4905884;29;20051;-83
2021/05/22 01:03:15;;;;;;;4.03;1.80;;;10.10;99.90;;;;;;4920346;29;20059;-82
2021/05/22 01:05:45;;;;;;;3.35;2.45;;;10.10;99.90;;;;;;4903358;29;20051;-83
2021/05/22 01:08:19;;;;;;;2.40;1.45;;;10.10;99.90;;;;;;4919786;29;20048;-83
2021/05/22 01:11:01;;;;;;;6.28;1.98;;;10.10;99.90;;;;;;4902166;29;20063;-83
2021/05/22 01:13:35;;;;;;;4.95;2.03;;;10.10;99.90;;;;;;4903163;29;20412;-82
2021/05/22 01:16:03;;;;;;;7.13;2.00;;;10.10;99.90;;;;;;4903862;29;20064;-83
2021/05/22 01:18:31;;;;;;;3.38;2.25;;;10.10;99.90;;;;;;4919682;29;20044;-83
2021/05/22 01:21:04;;;;;;;4.00;1.80;;;10.10;99.90;;;;;;4889382;29;20052;-83
2021/05/22 01:23:40;;;;;;;4.85;1.90;;;10.10;99.90;;;;;;4919256;29;20503;-83
2021/05/22 01:26:14;;;;;;;2.97;1.88;;;10.10;99.90;;;;;;4903654;29;20558;-82
2021/05/22 01:28:44;;;;;;;2.70;1.90;;;10.10;99.90;;;;;;4890882;29;20044;-83
2021/05/22 01:31:12;;;;;;;8.27;2.08;;;10.00;99.90;;;;;;4924921;29;20071;-83
2021/05/22 01:33:42;;;;;;;3.50;2.20;;;10.10;99.90;;;;;;4931123;29;20060;-83
2021/05/22 01:36:12;;;;;;;4.57;2.45;;;10.10;99.90;;;;;;4924716;29;20055;-83
2021/05/22 01:38:41;;;;;;;6.63;2.08;;;10.10;99.90;;;;;;4921587;29;20052;-83
2021/05/22 01:41:12;;;;;;;8.13;3.22;;;10.10;99.90;;;;;;4914238;29;20075;-83
2021/05/22 01:43:45;;;;;;;3.80;2.25;;;10.10;99.90;;;;;;4917567;29;20060;-83
2021/05/22 01:46:24;;;;;;;5.55;2.17;;;10.10;99.90;;;;;;4890861;29;20048;-83
2021/05/22 01:48:53;;;;;;;6.25;2.67;;;10.10;99.90;;;;;;4898543;29;20052;-82
2021/05/22 01:51:25;;;;;;;5.03;2.65;;;10.80;99.90;;;;;;4921536;29;20678;-83
2021/05/22 01:54:10;;;;;;;5.90;1.98;;;10.10;99.90;;;;;;4920573;29;20052;-84
2021/05/22 01:56:42;;;;;;;6.85;2.47;;;10.10;99.90;;;;;;4904457;29;20056;-82
2021/05/22 01:59:10;;;;;;;2.83;2.40;;;10.10;99.90;;;;;;4893577;29;20099;-83
2021/05/22 02:01:38;;;;;;;4.03;1.95;;;10.30;99.90;;;;;;4917184;29;20142;-83
2021/05/22 02:04:07;;;;;;;4.90;3.60;;;10.10;99.90;;;;;;4876987;29;20060;-83
2021/05/22 02:06:42;;;;;;;4.13;2.17;;;10.10;99.90;;;;;;4920107;29;20048;-83
2021/05/22 02:09:13;;;;;;;3.22;1.98;;;10.10;99.90;;;;;;4906721;29;20066;-82
2021/05/22 02:11:50;;;;;;;4.82;2.05;;;10.10;99.90;;;;;;4904908;29;20044;-83
2021/05/22 02:14:29;;;;;;;2.15;1.80;;;10.20;99.90;;;;;;4922915;29;20043;-83
2021/05/22 02:17:00;;;;;;;5.97;2.90;;;10.10;99.90;;;;;;4919828;29;20067;-83
2021/05/22 02:19:29;;;;;;;7.83;2.00;;;10.20;99.90;;;;;;4905683;29;20055;-83
2021/05/22 02:22:01;;;;;;;5.78;2.47;;;10.10;99.90;;;;;;4919991;29;20060;-83
2021/05/22 02:24:30;;;;;;;7.70;2.42;;;10.10;99.90;;;;;;4907286;29;20125;-83
2021/05/22 02:27:02;;;;;;;4.20;2.15;;;10.40;99.90;;;;;;4924567;29;20071;-83
2021/05/22 02:29:33;;;;;;;6.40;2.10;;;10.20;99.90;;;;;;4889736;29;20044;-82
2021/05/22 02:32:03;;;;;;;2.20;1.90;;;10.20;99.90;;;;;;4922452;29;20302;-83
2021/05/22 02:34:56;;;;;;;3.83;2.13;;;10.20;99.90;;;;;;4902310;29;20044;-83
2021/05/22 02:37:28;;;;;;;2.85;1.90;;;10.20;99.90;;;;;;4919818;29;20512;-83
2021/05/22 02:40:00;;;;;;;3.33;2.63;;;10.70;99.90;;;;;;4922618;29;20052;-84
2021/05/22 02:42:32;;;;;;;7.03;2.42;;;10.20;99.90;;;;;;4904098;29;20060;-83
2021/05/22 02:45:03;;;;;;;3.50;1.90;;;10.20;99.90;;;;;;4917642;29;20052;-84
2021/05/22 02:47:34;;;;;;;5.35;2.45;;;10.20;99.90;;;;;;4919669;29;20052;-83
2021/05/22 02:50:10;;;;;;;4.47;2.42;;;10.20;99.90;;;;;;4918436;29;20060;-83
2021/05/22 02:52:39;;;;;;;4.95;2.15;;;10.20;99.90;;;;;;4580716;29;9999691;-83
2021/05/22 02:55:09;;;;;;;6.85;2.72;;;10.20;99.90;;;;;;4921006;29;20048;-83
2021/05/22 02:57:39;;;;;;;2.72;1.95;;;10.20;99.90;;;;;;4887609;29;20058;-83
2021/05/22 03:00:10;;;;;;;8.52;3.05;;;10.20;99.90;;;;;;4903305;29;20048;-83
2021/05/22 03:02:40;;;;;;;5.55;2.33;;;10.20;99.90;;;;;;4918982;29;20059;-83
2021/05/22 03:05:09;;;;;;;5.60;2.28;;;10.20;99.90;;;;;;4903047;29;20563;-84
2021/05/22 03:07:39;;;;;;;3.97;2.00;;;10.20;99.90;;;;;;4902958;29;20055;-84
2021/05/22 03:10:07;;;;;;;2.80;2.50;;;10.20;99.90;;;;;;4927272;29;20377;-84
2021/05/22 03:12:37;;;;;;;7.07;2.33;;;10.10;99.90;;;;;;4902891;29;20419;-83
2021/05/22 03:15:07;;;;;;;3.33;2.30;;;10.20;99.90;;;;;;4887050;29;20086;-83
2021/05/22 03:17:35;;;;;;;2.45;1.90;;;10.20;99.90;;;;;;4916941;29;20063;-83
2021/05/22 03:20:08;;;;;;;5.75;1.85;;;10.20;99.90;;;;;;4901341;29;20067;-83
2021/05/22 03:22:36;;;;;;;5.40;2.45;;;10.20;99.90;;;;;;4915865;29;20048;-83
2021/05/22 03:25:05;;;;;;;3.95;2.58;;;10.20;99.90;;;;;;4904261;29;20059;-83
2021/05/22 03:27:38;;;;;;;;;;;10.10;99.90;;;;;;4906512;29;20059;-84
2021/05/22 03:30:08;;;;;;;3.60;2.30;;;10.70;99.90;;;;;;4904512;29;19923;-83
2021/05/22 03:32:37;;;;;;;2.38;1.98;;;10.10;99.90;;;;;;4920038;29;20479;-82
2021/05/22 03:35:06;;;;;;;4.13;2.15;;;10.10;99.90;;;;;;4921500;29;20055;-83
2021/05/22 03:37:35;;;;;;;2.83;2.08;;;10.20;99.90;;;;;;4918792;29;20076;-83
2021/05/22 03:40:05;;;;;;;3.83;2.55;;;10.10;99.90;;;;;;4920671;29;20056;-83
2021/05/22 03:42:34;;;;;;;5.38;3.13;;;10.20;99.90;;;;;;4919757;29;20071;-83
2021/05/22 03:45:03;;;;;;;6.05;2.47;;;10.10;99.90;;;;;;4904485;29;20488;-84
2021/05/22 03:47:31;;;;;;;5.93;3.45;;;10.20;99.90;;;;;;4926763;29;20059;-83
2021/05/22 03:49:59;;;;;;;2.83;2.25;;;10.30;99.90;;;;;;4914275;29;20060;-84
2021/05/22 03:52:28;;;;;;;3.40;3.00;;;10.20;99.90;;;;;;4930693;29;20052;-83
2021/05/22 03:54:56;;;;;;;5.63;3.50;;;10.90;99.90;;;;;;4925523;29;20055;-84
2021/05/22 03:57:26;;;;;;;2.63;2.40;;;10.20;99.90;;;;;;4912833;29;20377;-84
2021/05/22 03:59:55;;;;;;;4.03;2.70;;;10.20;99.90;;;;;;4912908;29;20063;-83
2021/05/22 04:02:23;;;;;;;3.97;2.72;;;10.20;99.90;;;;;;4910062;29;20063;-83
2021/05/22 04:05:20;;;;;;;4.45;2.30;;;10.30;99.90;;;;;;4894688;29;20059;-83
2021/05/22 04:07:48;;;;;;;2.90;2.22;;;10.30;99.90;;;;;;4923340;29;20063;-83
2021/05/22 04:10:16;;;;;;;9.07;3.83;;;10.30;99.90;;;;;;4922927;29;20079;-84
2021/05/22 04:12:46;;;;;;;2.80;2.60;;;10.30;99.90;;;;;;4908021;29;20060;-84
2021/05/22 04:15:16;;;;;;;3.17;2.70;;;10.30;99.90;;;;;;4909033;29;20048;-84
2021/05/22 04:17:46;;;;;;;4.60;2.40;;;10.30;99.90;;;;;;4923283;29;20067;-84
2021/05/22 04:20:16;;;;;;;3.58;2.72;;;10.30;99.90;;;;;;4921814;29;20048;-83
2021/05/22 04:22:44;;;;;;;3.08;2.67;;;10.40;99.90;;;;;;4928150;29;20067;-83
2021/05/22 04:25:15;;;;;;;3.28;2.50;;;10.30;99.90;;;;;;4938573;29;20059;-83
2021/05/22 04:27:44;;;;;;;2.40;2.20;;;10.30;99.90;;;;;;4938280;29;20036;-83
2021/05/22 04:30:14;;;;;;;3.10;2.58;;;10.30;99.90;;;;;;4937328;29;20035;-84
2021/05/22 04:32:42;;;;;;;4.28;2.80;;;10.30;99.90;;;;;;4937107;29;20048;-83
2021/05/22 04:35:11;;;;;;;3.95;3.13;;;10.40;99.90;;;;;;4916324;29;20048;-84
2021/05/22 04:37:41;;;;;;;4.30;2.95;;;10.40;99.90;;;;;;4907712;29;20047;-85
2021/05/22 04:40:16;;;;;;;2.75;2.45;;;10.30;99.90;;;;;;4905490;29;20048;-84
2021/05/22 04:42:45;;;;;;;7.53;2.85;;;10.30;99.90;;;;;;4922388;29;20055;-83
2021/05/22 04:45:14;;;;;;;3.20;2.45;;;10.30;99.90;;;;;;4919547;29;20512;-83
2021/05/22 04:47:45;;;;;;;3.30;3.00;;;10.30;99.90;;;;;;4886481;29;20059;-84
2021/05/22 04:50:15;;;;;;;3.28;2.80;;;10.30;99.90;;;;;;4920375;29;20067;-83
2021/05/22 04:52:46;;;;;;;3.55;3.25;;;10.90;99.90;;;;;;4929060;29;20046;-85
2021/05/22 04:55:24;;;;;;;5.00;2.45;;;10.60;99.90;;;;;;4587795;29;10000408;-84
2021/05/22 04:57:52;;;;;;;4.50;3.53;;;10.20;99.90;;;;;;4936642;29;20044;-83
2021/05/22 05:00:23;;;;;;;5.68;2.90;;;10.20;99.90;;;;;;4922043;29;20060;-83
2021/05/22 05:02:54;;;;;;;3.17;2.80;;;10.20;99.90;;;;;;4921068;29;20062;-84
2021/05/22 05:05:24;;;;;;;6.90;3.30;;;10.20;99.90;;;;;;4920850;29;20052;-84
2021/05/22 05:07:54;;;;;;;3.08;2.85;;;10.20;99.90;;;;;;4903195;29;20064;-83
2021/05/22 05:10:23;;;;;;;4.75;3.15;;;10.20;99.90;;;;;;4934407;29;20060;-84
2021/05/22 05:12:54;;;;;;;3.45;3.13;;;10.10;99.90;;;;;;4925516;29;20066;-83
2021/05/22 05:15:23;;;;;;;3.38;2.80;;;10.10;99.90;;;;;;4915050;29;20052;-84
2021/05/22 05:17:54;;;;;;;6.03;4.53;;;10.10;99.90;;;;;;4930343;29;20052;-83
2021/05/22 05:20:22;;;;;;;9.38;3.50;;;10.10;99.90;;;;;;4932228;29;20051;-85
2021/05/22 05:22:50;;;;;;;4.22;3.67;;;10.10;99.90;;;;;;4930192;29;20063;-85
2021/05/22 05:25:19;;;;;;;5.72;3.83;;;10.10;99.90;;;;;;4930689;29;20621;-83
2021/05/22 05:27:46;;;;;;;9.55;4.72;;;10.20;99.90;;;;;;4931125;29;20060;-83
2021/05/22 05:30:15;;;;;;;7.22;4.15;;;11.30;99.90;;;;;;4913298;29;20086;-84
2021/05/22 05:32:46;;;;;;;5.55;4.22;;;10.10;99.90;;;;;;4930607;29;20062;-83
2021/05/22 05:35:15;;;;;;;7.75;5.07;;;10.00;99.90;;;;;;4898722;29;20065;-83
2021/05/22 05:37:45;;;;;;;8.80;5.63;;;10.30;99.90;;;;;;4915981;29;20059;-84
2021/05/22 05:40:20;;;;;;;9.23;5.43;;;10.10;99.90;;;;;;4902786;29;20056;-86
2021/05/22 05:42:51;;;;;;;8.40;4.90;;;10.00;99.90;;;;;;4928104;29;20056;-84
2021/05/22 05:45:21;;;;;;;9.07;5.68;;;10.30;99.90;;;;;;4896650;29;20065;-84
2021/05/22 05:47:53;;;;;;;8.77;6.03;;;10.10;99.90;;;;;;4892561;29;20056;-84
2021/05/22 05:50:29;;;;;;;8.52;4.82;;;10.00;99.90;;;;;;4889846;29;20053;-83
2021/05/22 05:53:00;;;;;;;7.93;6.18;;;10.00;99.90;;;;;;4890561;29;20053;-84
2021/05/22 05:55:28;;;;;;;7.43;5.38;;;10.10;99.90;;;;;;4880227;29;20068;-84
2021/05/22 05:57:57;;;;;;;7.88;5.25;;;10.10;99.90;;;;;;4886144;29;20060;-84
2021/05/22 06:00:29;;;;;;;7.80;5.22;;;10.10;99.90;;;;;;4888913;29;20060;-84
2021/05/22 06:02:57;;;;;;;6.65;5.15;;;10.10;99.90;;;;;;4889981;29;20469;-84
2021/05/22 06:05:25;;;;;;;6.45;4.80;;;10.10;99.90;;;;;;4888361;29;20409;-85
2021/05/22 06:07:53;;;;;;;5.93;4.53;;;10.70;99.90;;;;;;4873622;29;20067;-84
2021/05/22 06:10:21;;;;;;;5.63;4.07;;;10.10;99.90;;;;;;4890454;29;20060;-85
2021/05/22 06:12:51;;;;;;;6.63;4.78;;;10.10;99.90;;;;;;4892958;29;20063;-84
2021/05/22 06:15:31;;;;;;;5.18;4.32;;;10.10;99.90;;;;;;4868123;29;20064;-84
2021/05/22 06:18:00;;;;;;;5.20;3.65;;;10.20;99.90;;;;;;4873811;29;20170;-84
2021/05/22 06:20:29;;;;;;;4.53;3.60;;;10.20;99.90;;;;;;4884155;29;20640;-83
2021/05/22 06:22:56;;;;;;;4.47;3.78;;;10.30;99.90;;;;;;4863745;29;20060;-85
2021/05/22 06:25:24;;;;;;;3.50;3.13;;;10.30;99.90;;;;;;4885902;29;20049;-83
2021/05/22 06:27:57;;;;;;;4.30;3.90;;;10.50;99.90;;;;;;4897788;29;20053;-84
2021/05/22 06:30:26;;;;;;;4.10;3.70;;;10.30;99.90;;;;;;4869102;29;20041;-83
2021/05/22 06:32:57;;;;;;;3.97;3.13;;;10.30;99.90;;;;;;4869322;29;20057;-84
2021/05/22 06:35:29;;;;;;;4.15;2.70;;;10.30;99.90;;;;;;4887206;29;20073;-84
2021/05/22 06:38:03;;;;;;;4.97;3.88;;;10.30;99.90;;;;;;4872565;29;20057;-84
2021/05/22 06:40:32;;;;;;;6.03;3.45;;;10.30;99.90;;;;;;4884665;29;20057;-84
2021/05/22 06:43:03;;;;;;;5.13;3.50;;;10.30;99.90;;;;;;4864431;29;20049;-84
2021/05/22 06:45:43;;;;;;;5.45;3.75;;;10.40;99.90;;;;;;4918823;29;20064;-84
2021/05/22 06:48:15;;;;;;;5.60;3.90;;;10.40;99.90;;;;;;4914821;29;20258;-84
2021/05/22 06:50:44;;;;;;;5.32;3.60;;;10.30;99.90;;;;;;4917755;29;20044;-84
2021/05/22 06:53:16;;;;;;;5.97;3.78;;;11.50;99.90;;;;;;4914271;29;20377;-85
2021/05/22 06:55:47;;;;;;;4.33;3.67;;;10.30;99.90;;;;;;4568196;29;9999893;-84
2021/05/22 06:58:18;;;;;;;4.00;3.63;;;10.40;99.90;;;;;;4903088;29;20408;-84
2021/05/22 07:00:52;;;;;;;4.22;3.53;;;10.70;99.90;;;;;;4918177;29;20056;-84
2021/05/22 07:03:25;;;;;;;4.35;3.47;;;10.40;99.90;;;;;;4904918;29;20091;-83
2021/05/22 07:05:58;;;;;;;;;;;10.40;99.90;;;;;;4918550;29;20060;-85
2021/05/22 07:08:30;;;;;;;5.35;3.22;;;10.40;99.90;;;;;;4918013;29;19927;-84
2021/05/22 07:10:59;;;;;;;4.95;4.45;;;10.30;99.90;;;;;;4916779;29;20064;-85
2021/05/22 07:13:28;;;;;;;5.38;3.50;;;10.50;99.90;;;;;;4916875;29;20060;-85
2021/05/22 07:15:58;;;;;;;5.13;3.28;;;10.40;99.90;;;;;;4921802;29;20056;-84
2021/05/22 07:18:30;;;;;;;5.57;3.80;;;10.40;99.90;;;;;;4919479;29;20476;-83
2021/05/22 07:20:59;;;;;;;3.80;3.30;;;10.40;99.90;;;;;;4920252;29;20067;-83
2021/05/22 07:23:29;;;;;;;4.97;3.50;;;10.20;99.90;;;;;;4906060;29;20055;-84
2021/05/22 07:25:59;;;;;;;2.63;2.42;;;10.50;99.90;;;;;;4905809;29;20071;-84
2021/05/22 07:28:30;;;;;;;8.27;4.18;;;10.60;99.90;;;;;;4922988;29;20125;-84
2021/05/22 07:31:02;;;;;;;5.70;3.85;;;10.50;99.90;;;;;;4889428;29;20068;-85
2021/05/22 07:33:34;;;;;;;5.03;3.25;;;10.60;99.90;;;;;;4905260;29;20048;-84
2021/05/22 07:36:02;;;;;;;2.58;2.38;;;10.70;99.90;;;;;;4922401;29;20067;-84
2021/05/22 07:38:32;;;;;;;3.38;3.08;;;10.80;99.90;;;;;;4917596;29;20067;-84
2021/05/22 07:41:03;;;;;;;6.25;3.22;;;10.90;99.90;;;;;;4924258;29;20064;-84
2021/05/22 07:43:31;;;;;;;3.90;3.53;;;11.00;99.90;;;;;;4926629;29;20062;-85
2021/05/22 07:46:00;;;;;;;4.15;2.80;;;11.10;99.90;;;;;;4918780;29;20056;-85
2021/05/22 07:48:31;;;;;;;3.25;2.47;;;11.00;99.90;;;;;;4901796;29;20068;-85
2021/05/22 07:50:59;;;;;;;2.67;2.13;;;11.10;99.90;;;;;;4915946;29;20056;-84
2021/05/22 07:53:28;;;;;;;2.22;2.03;;;11.20;99.90;;;;;;4916306;29;20075;-84
2021/05/22 07:55:56;;;;;;;3.03;2.08;;;11.20;99.90;;;;;;4915071;29;20524;-84
2021/05/22 07:58:23;;;;;;;2.50;2.30;;;11.20;99.90;;;;;;4915881;29;20448;-85
2021/05/22 08:00:55;;;;;;;2.00;1.90;;;11.30;99.90;;;;;;4912199;29;20636;-85
2021/05/22 08:03:23;;;;;;;5.20;2.53;;;11.40;99.90;;;;;;4905671;29;20521;-85
2021/05/22 08:05:51;;;;;;;3.05;1.50;;;11.60;99.90;;;;;;4912247;29;20055;-84
2021/05/22 08:08:20;;;;;;;4.35;1.70;;;11.70;99.90;;;;;;4912851;29;20079;-84
2021/05/22 08:10:48;;;;;;;3.67;1.52;;;11.90;99.90;;;;;;4898996;29;20160;-84
2021/05/22 08:13:21;;;;;;;1.63;1.52;;;12.10;99.90;;;;;;4894657;29;20056;-84
2021/05/22 08:15:49;;;;;;;1.92;1.60;;;12.10;99.90;;;;;;4908725;29;20052;-85
2021/05/22 08:18:16;;;;;;;2.13;1.95;;;12.10;99.90;;;;;;4911372;29;20111;-84
2021/05/22 08:20:44;;;;;;;1.75;1.60;;;12.20;99.90;;;;;;4898139;29;20064;-85
2021/05/22 08:23:12;;;;;;;5.45;1.65;;;12.20;99.90;;;;;;4914454;29;20056;-84
2021/05/22 08:25:39;;;;;;;2.08;1.65;;;12.10;99.90;;;;;;4914858;29;20055;-85
2021/05/22 08:28:21;;;;;;;5.40;1.88;;;12.00;99.90;;;;;;4913496;29;20055;-85
2021/05/22 08:30:49;;;;;;;;;;;11.90;99.90;;;;;;4912749;29;20059;-85
2021/05/22 08:33:17;;;;;;;3.92;1.98;;;11.90;99.90;;;;;;4907714;29;19923;-85
2021/05/22 08:35:44;;;;;;;2.33;2.13;;;11.90;99.90;;;;;;4910451;29;20052;-85
2021/05/22 08:38:12;;;;;;;2.13;1.60;;;11.90;99.90;;;;;;4897012;29;20052;-84
2021/05/22 08:40:40;;;;;;;3.67;2.00;;;12.10;99.90;;;;;;4912288;29;20697;-84
2021/05/22 08:43:08;;;;;;;3.53;2.30;;;12.00;99.90;;;;;;4899138;29;20055;-86
2021/05/22 08:45:35;;;;;;;1.60;1.50;;;12.00;99.90;;;;;;4916584;29;20078;-85
2021/05/22 08:48:04;;;;;;;5.75;2.10;;;12.10;99.90;;;;;;4912536;29;20052;-83
2021/05/22 08:50:32;;;;;;;6.20;2.05;;;12.20;99.90;;;;;;4912164;29;20059;-84
2021/05/22 08:53:00;;;;;;;3.90;2.00;;;12.30;99.90;;;;;;4913965;29;20060;-83
2021/05/22 08:55:29;;;;;;;2.83;2.20;;;12.50;99.90;;;;;;4897453;29;20052;-84
2021/05/22 08:57:56;;;;;;;2.55;1.90;;;12.60;99.90;;;;;;4911743;29;20624;-85
2021/05/22 09:00:27;;;;;;;5.88;2.22;;;12.60;99.90;;;;;;4910703;29;20071;-85
2021/05/22 09:02:57;;;;;;;3.13;1.70;;;12.60;99.90;;;;;;4915591;29;20067;-88
2021/05/22 09:05:30;;;;;;;3.80;1.67;;;12.50;99.90;;;;;;4896656;29;20073;-87
2021/05/22 09:08:03;;;;;;;6.10;2.75;;;12.40;99.90;;;;;;4889972;29;20044;-87
2021/05/22 09:10:35;;;;;;;7.85;3.72;;;12.30;99.90;;;;;;4897277;29;20045;-86
2021/05/22 09:13:19;;;;;;;11.18;2.38;;;12.20;99.90;;;;;;4910424;29;20056;-84
2021/05/22 09:15:48;;;;;;;2.60;2.22;;;12.20;99.90;;;;;;4911915;29;20052;-85
2021/05/22 09:18:21;;;;;;;3.85;2.53;;;12.20;99.90;;;;;;4880026;29;20055;-85
2021/05/22 09:20:57;;;;;;;2.90;2.42;;;12.20;99.90;;;;;;4910573;29;20060;-86
2021/05/22 09:23:30;;;;;;;4.57;2.13;;;12.10;99.90;;;;;;4910662;29;20055;-84
2021/05/22 09:26:12;;;;;;;4.70;2.30;;;12.10;99.90;;;;;;4879582;29;20048;-87
2021/05/22 09:28:51;;;;;;;3.60;2.13;;;12.10;99.90;;;;;;4910970;29;20051;-86
2021/05/22 09:31:24;;;;;;;5.68;2.30;;;12.20;99.90;;;;;;4893633;29;20052;-85
2021/05/22 09:33:59;;;;;;;4.18;2.40;;;12.20;99.90;;;;;;4911267;29;20059;-86
2021/05/22 09:36:27;;;;;;;3.45;1.95;;;12.20;99.90;;;;;;4894747;29;20049;-84
2021/05/22 09:38:56;;;;;;;5.38;2.90;;;12.10;99.90;;;;;;4914363;29;20055;-85
2021/05/22 09:41:34;;;;;;;4.60;2.83;;;12.10;99.90;;;;;;4913686;29;20051;-85
2021/05/22 09:44:10;;;;;;;3.83;2.95;;;12.00;99.90;;;;;;4914290;29;20060;-85
2021/05/22 09:46:58;;;;;;;5.85;2.22;;;12.00;99.90;;;;;;4916521;29;20063;-85
2021/05/22 09:49:32;;;;;;;4.55;2.50;;;12.00;99.90;;;;;;4917291;29;20060;-84
2021/05/22 09:52:05;;;;;;;6.47;2.88;;;11.90;99.90;;;;;;4913711;29;20060;-86
2021/05/22 09:54:49;;;;;;;5.35;2.63;;;11.90;99.90;;;;;;4917222;29;20607;-86
2021/05/22 09:57:42;;;;;;;8.48;2.65;;;11.90;99.90;;;;;;4897603;29;20048;-84
2021/05/22 10:00:19;;;;;;;6.50;2.60;;;11.90;99.90;;;;;;4898048;29;20056;-84
2021/05/22 10:02:57;;;;;;;7.72;3.28;;;11.80;99.90;;;;;;4910657;29;20055;-83
2021/05/22 10:05:33;;;;;;;4.90;2.30;;;11.80;99.90;;;;;;4896706;29;20058;-84
2021/05/22 10:08:04;;;;;;;7.82;3.13;;;11.90;99.90;;;;;;4910649;29;20063;-86
2021/05/22 10:10:45;;;;;;;7.43;2.75;;;11.90;99.90;;;;;;4909958;29;20079;-85
2021/05/22 10:13:21;;;;;;;5.85;3.22;;;12.00;99.90;;;;;;4907434;29;20056;-85
2021/05/22 10:15:55;;;;;;;11.10;2.38;;;11.70;99.90;;;;;;4910358;29;20044;-85
2021/05/22 10:18:28;;;;;;;7.18;3.40;;;12.00;99.90;;;;;;4908425;29;20054;-85
2021/05/22 10:21:02;;;;;;;3.10;2.20;;;11.30;99.90;;;;;;4894628;29;20060;-83
2021/05/22 10:23:30;;;;;;;5.55;2.75;;;12.00;99.90;;;;;;4889336;29;20515;-85
2021/05/22 10:25:59;;;;;;;2.90;1.85;;;12.00;99.90;;;;;;4911882;29;20056;-84
2021/05/22 10:28:27;;;;;;;4.90;2.50;;;12.10;99.90;;;;;;4914197;29;20056;-84
2021/05/22 10:30:56;;;;;;;4.32;2.47;;;12.00;99.90;;;;;;4912430;29;20063;-85
2021/05/22 10:33:25;;;;;;;6.82;2.72;;;12.10;99.90;;;;;;4898358;29;20052;-85
2021/05/22 10:35:56;;;;;;;6.85;3.42;;;12.10;99.90;;;;;;4550916;29;10000864;-85
2021/05/22 10:38:34;;;;;;;6.10;3.30;;;12.10;99.90;;;;;;4875222;29;20449;-86
2021/05/22 10:41:11;;;;;;;8.57;3.35;;;12.10;99.90;;;;;;4890085;29;20546;-85
2021/05/22 10:43:51;;;;;;;4.90;3.53;;;12.00;99.90;;;;;;4891769;29;20062;-86
2021/05/22 10:46:21;;;;;;;5.15;3.15;;;12.00;99.90;;;;;;4874773;29;20053;-85
2021/05/22 10:49:02;;;;;;;5.05;3.25;;;11.90;99.90;;;;;;4873778;29;20057;-85
2021/05/22 10:51:37;;;;;;;9.65;3.90;;;11.80;99.90;;;;;;4889016;29;20603;-86
2021/05/22 10:54:17;;;;;;;7.68;3.13;;;11.70;99.90;;;;;;4895842;29;20071;-85
2021/05/22 10:57:09;;;;;;;7.15;2.85;;;11.70;99.90;;;;;;4901195;29;20052;-85
2021/05/22 10:59:38;;;;;;;6.32;2.65;;;11.70;99.90;;;;;;4883361;29;20072;-85
2021/05/22 11:02:35;;;;;;;10.23;3.30;;;11.60;99.90;;;;;;4899047;29;20057;-85
2021/05/22 11:05:35;;;;;;;10.13;3.85;;;11.70;99.90;;;;;;4882704;29;20213;-85
2021/05/22 11:08:03;;;;;;;9.13;3.60;;;11.70;99.90;;;;;;4868232;29;20066;-85
2021/05/22 11:10:36;;;;;;;9.50;4.00;;;11.70;99.90;;;;;;4900790;29;20048;-86
2021/05/22 11:13:14;;;;;;;8.07;3.22;;;11.60;99.90;;;;;;4911793;29;20087;-92
2021/05/22 11:38:55;;;;;;;4.38;3.15;;;12.10;99.90;;;;;;4753022;30;20137;-89
2021/05/22 11:42:32;;;;;;;4.82;2.80;;;12.10;99.90;;;;;;4774562;29;20049;-91
2021/05/22 11:45:10;;;;;;;6.57;3.17;;;12.70;99.90;;;;;;4774603;30;20059;-91
2021/05/22 11:47:48;;;;;;;7.72;3.33;;;12.10;99.90;;;;;;4755967;30;20137;-89
2021/05/22 11:50:26;;;;;;;8.10;4.23;;;12.70;99.90;;;;;;4772255;30;20520;-90
2021/05/22 11:53:17;;;;;;;10.30;4.93;;;12.10;99.90;;;;;;4780154;30;20066;-90
2021/05/22 11:56:22;;;;;;;4.18;3.13;;;12.60;99.90;;;;;;4773781;30;20043;-90
2021/05/22 11:58:58;;;;;;;5.82;3.28;;;12.60;99.90;;;;;;4778286;30;20063;-91
2021/05/22 12:01:42;;;;;;;7.70;3.67;;;11.80;99.90;;;;;;4778658;29;20067;-91
2021/05/22 12:04:25;;;;;;;10.80;4.13;;;12.50;99.90;;;;;;4767684;30;20074;-90
2021/05/22 12:06:57;;;;;;;3.92;2.63;;;12.50;99.90;;;;;;4762419;30;20070;-91
2021/05/22 12:09:45;;;;;;;5.45;3.00;;;12.50;99.90;;;;;;4772514;30;20066;-91
2021/05/22 12:12:43;;;;;;;9.65;3.45;;;11.30;99.90;;;;;;4785440;30;20054;-90
2021/05/22 12:15:32;;;;;;;8.55;3.70;;;12.50;99.90;;;;;;4761668;30;20055;-90
2021/05/22 12:18:07;;;;;;;10.05;3.50;;;12.50;99.90;;;;;;4756097;30;20047;-89
2021/05/22 12:20:54;;;;;;;5.88;3.30;;;12.20;99.90;;;;;;4782801;30;20054;-90
2021/05/22 12:23:31;;;;;;;12.40;6.18;;;12.50;99.90;;;;;;4783102;30;20071;-91
2021/05/22 12:26:16;;;;;;;8.65;3.70;;;12.60;99.90;;;;;;4764058;30;20055;-90
2021/05/22 12:28:59;;;;;;;4.57;3.55;;;12.70;99.90;;;;;;4781361;30;20055;-90
2021/05/22 12:31:31;;;;;;;6.85;4.10;;;12.70;99.90;;;;;;4782850;30;20070;-90
2021/05/22 12:34:03;;;;;;;3.53;3.08;;;12.80;99.90;;;;;;4785333;30;20063;-90
2021/05/22 12:36:34;;;;;;;;;;;12.80;99.90;;;;;;4748640;30;20058;-91
2021/05/22 12:39:13;;;;;;;9.18;3.78;;;12.80;99.90;;;;;;4758969;30;19925;-90
2021/05/22 12:41:44;;;;;;;9.10;3.73;;;11.90;99.90;;;;;;4739684;30;20569;-89
2021/05/22 12:44:20;;;;;;;5.57;3.13;;;12.90;99.90;;;;;;4770924;30;20520;-89
2021/05/22 12:46:58;;;;;;;4.53;2.40;;;12.90;99.90;;;;;;4744841;30;20081;-90
2021/05/22 12:50:10;;;;;;;6.68;2.92;;;12.90;99.90;;;;;;4759734;30;20047;-90
2021/05/22 12:53:00;;;;;;;6.00;3.30;;;13.40;99.90;;;;;;4763938;30;20055;-89
2021/05/22 12:55:38;;;;;;;5.35;2.13;;;13.10;99.90;;;;;;4774007;30;20059;-90
2021/05/22 12:58:24;;;;;;;7.18;2.95;;;13.30;99.90;;;;;;4772401;30;20055;-91
2021/05/22 13:01:17;;;;;;;5.32;2.00;;;13.40;99.90;;;;;;4758305;30;20051;-90
2021/05/22 13:03:51;;;;;;;2.97;2.15;;;13.50;99.90;;;;;;4766583;30;20169;-90
2021/05/22 13:06:58;;;;;;;7.45;2.83;;;13.70;99.90;;;;;;4792464;29;20055;-91
2021/05/22 13:09:29;;;;;;;3.78;2.40;;;14.00;99.90;;;;;;4771020;30;20184;-89
2021/05/22 13:12:06;;;;;;;4.63;2.13;;;14.10;99.90;;;;;;4785206;30;20059;-89
2021/05/22 13:14:47;;;;;;;3.80;2.30;;;14.30;99.90;;;;;;4751274;30;20062;-89
2021/05/22 13:17:20;;;;;;;4.30;2.95;;;14.40;99.90;;;;;;4764945;30;20051;-89
2021/05/22 13:19:54;;;;;;;7.75;2.25;;;14.50;99.90;;;;;;4757820;29;20055;-91
2021/05/22 13:22:30;;;;;;;6.07;2.40;;;14.70;99.90;;;;;;4784972;29;20116;-92
2021/05/22 13:25:12;;;;;;;6.70;3.47;;;14.90;99.90;;;;;;4754552;29;20047;-89
2021/05/22 13:28:00;;;;;;;3.67;2.35;;;15.30;99.90;;;;;;4769545;30;20062;-91
2021/05/22 13:30:35;;;;;;;5.20;2.22;;;14.50;99.90;;;;;;4751639;30;20047;-90
2021/05/22 13:33:57;;;;;;;3.33;2.00;;;15.90;99.90;;;;;;4772518;30;20070;-91
2021/05/22 13:36:26;;;;;;;3.22;1.88;;;16.90;99.90;;;;;;4669355;30;1979249;-90
2021/05/22 13:38:54;;;;;;;2.83;1.70;;;16.70;99.90;;;;;;4785329;30;20059;-92
2021/05/22 13:41:30;;;;;;;1.95;1.80;;;17.10;99.90;;;;;;4769392;30;20055;-92